Time;durP1;ratioP1;P1;durP2;ratioP2;P2;SDS_P1;SDS_P2;PMS_P1;PMS_P2;Temp;Humidity;BMP_temperature;BMP_pressure;BME280_temperature;BME280_humidity;BME280_pressure;Samples;Min_cycle;Max_cycle;Signal;HPM_P1;HPM_P2
2023/09/19 00:00:46;;;;;;;;;;;17.30;99.90;;;;;;7331994;19;109384;-86
2023/09/19 00:03:15;;;;;;;;;;;17.30;99.90;;;;;;7337451;19;109038;-87
2023/09/19 00:05:45;;;;;;;;;;;17.30;99.90;;;;;;7334375;19;110239;-86
2023/09/19 00:08:16;;;;;;;;;;;17.20;99.90;;;;;;7329507;19;109772;-86
2023/09/19 00:10:43;;;;;;;;;;;17.20;99.90;;;;;;7334282;19;110148;-86
2023/09/19 00:13:13;;;;;;;;;;;17.20;99.90;;;;;;7329322;19;110665;-86
2023/09/19 00:15:50;;;;;;;;;;;17.20;99.90;;;;;;7333142;19;110156;-86
2023/09/19 00:18:20;;;;;;;;;;;17.20;99.90;;;;;;7332351;19;109234;-86
2023/09/19 00:20:49;;;;;;;;;;;17.10;99.90;;;;;;7332330;19;110545;-86
2023/09/19 00:23:17;;;;;;;;;;;17.20;99.90;;;;;;7332296;19;110123;-86
2023/09/19 00:25:45;;;;;;;;;;;17.10;99.90;;;;;;7332107;19;109448;-87
2023/09/19 00:28:12;;;;;;;;;;;17.10;99.90;;;;;;7335284;19;108497;-86
2023/09/19 00:30:42;;;;;;;;;;;17.10;99.90;;;;;;7329099;19;111084;-86
2023/09/19 00:33:11;;;;;;;;;;;17.10;99.90;;;;;;7333426;19;110102;-86
2023/09/19 00:35:38;;;;;;;;;;;17.00;99.90;;;;;;7328728;19;108776;-85
2023/09/19 00:38:06;;;;;;;;;;;17.00;99.90;;;;;;7328904;19;110732;-87
2023/09/19 00:40:35;;;;;;;;;;;17.00;99.90;;;;;;7327929;19;113767;-85
2023/09/19 00:43:02;;;;;;;;;;;16.90;99.90;;;;;;7333056;19;109355;-86
2023/09/19 00:45:29;;;;;;;;;;;16.90;99.90;;;;;;7331921;19;109028;-86
2023/09/19 00:47:57;;;;;;;;;;;16.90;99.90;;;;;;7332427;19;110185;-86
2023/09/19 00:50:25;;;;;;;;;;;16.90;99.90;;;;;;7330724;19;110199;-85
2023/09/19 00:52:55;;;;;;;;;;;16.90;99.90;;;;;;7331256;19;110611;-86
2023/09/19 00:55:23;;;;;;;;;;;16.80;99.90;;;;;;7331570;19;110399;-85
2023/09/19 00:57:51;;;;;;;;;;;16.80;99.90;;;;;;7330522;19;112363;-86
2023/09/19 01:00:19;;;;;;;;;;;16.80;99.90;;;;;;7327621;19;110187;-86
2023/09/19 01:02:47;;;;;;;;;;;16.80;99.90;;;;;;7328888;19;110625;-86
2023/09/19 01:05:15;;;;;;;;;;;16.80;99.90;;;;;;7326057;19;110541;-85
2023/09/19 01:07:48;;;;;;;;;;;16.70;99.90;;;;;;7327488;19;110515;-86
2023/09/19 01:10:17;;;;;;;;;;;16.70;99.90;;;;;;7334099;19;111121;-86
2023/09/19 01:12:50;;;;;;;;;;;16.70;99.90;;;;;;7328791;19;109761;-87
2023/09/19 01:20:49;;;;;;;;;;;16.70;99.90;;;;;;7333690;19;109549;-63
2023/09/19 01:23:35;;;;;;;;;;;16.60;99.90;;;;;;7335122;19;109983;-62
2023/09/19 01:26:08;;;;;;;;;;;16.60;99.90;;;;;;7336787;19;109082;-62
2023/09/19 01:28:54;;;;;;;;;;;16.60;99.90;;;;;;7337921;19;110538;-62
2023/09/19 01:31:23;;;;;;;;;;;16.60;99.90;;;;;;7333008;19;109208;-63
2023/09/19 01:34:09;;;;;;;;;;;16.60;99.90;;;;;;7344876;19;108615;-62
2023/09/19 01:36:36;;;;;;;;;;;16.60;99.90;;;;;;7334597;19;108755;-62
2023/09/19 01:39:13;;;;;;;;;;;16.50;99.90;;;;;;7336310;19;109374;-62
2023/09/19 01:42:04;;;;;;;;;;;16.50;99.90;;;;;;7337396;19;109559;-67
2023/09/19 01:44:40;;;;;;;;;;;16.50;99.90;;;;;;7336564;19;108899;-62
2023/09/19 01:47:12;;;;;;;;;;;16.50;99.90;;;;;;7333959;19;108862;-62
2023/09/19 01:50:18;;;;;;;;;;;16.50;99.90;;;;;;7334576;19;110066;-62
2023/09/19 01:53:09;;;;;;;;;;;16.50;99.90;;;;;;7371672;19;109135;-62
2023/09/19 01:55:42;;;;;;;;;;;16.50;99.90;;;;;;7368226;19;109778;-62
2023/09/19 01:58:29;;;;;;;;;;;16.40;99.90;;;;;;7371155;19;108965;-62
2023/09/19 02:00:59;;;;;;;;;;;16.40;99.90;;;;;;7367430;19;109178;-62
2023/09/19 02:03:28;;;;;;;;;;;16.40;99.90;;;;;;7367676;19;109374;-62
2023/09/19 02:05:56;;;;;;;;;;;16.40;99.90;;;;;;7371179;19;108828;-62
2023/09/19 02:08:26;;;;;;;;;;;16.40;99.90;;;;;;7366105;19;109306;-62
2023/09/19 02:10:53;;;;;;;;;;;16.40;99.90;;;;;;7367609;19;108846;-63
2023/09/19 02:13:21;;;;;;;;;;;16.40;99.90;;;;;;7373492;19;108925;-62
2023/09/19 02:15:48;;;;;;;;;;;16.40;99.90;;;;;;7367724;19;108328;-62
2023/09/19 02:18:16;;;;;;;;;;;16.40;99.90;;;;;;7366547;19;111365;-62
2023/09/19 02:20:44;;;;;;;;;;;16.40;99.90;;;;;;7367176;19;109124;-62
2023/09/19 02:23:12;;;;;;;;;;;16.40;99.90;;;;;;7369997;19;109398;-62
2023/09/19 02:25:40;;;;;;;;;;;16.30;99.90;;;;;;7368045;19;109793;-62
2023/09/19 02:28:09;;;;;;;;;;;16.40;99.90;;;;;;7369053;19;110092;-62
2023/09/19 02:30:36;;;;;;;;;;;16.40;99.90;;;;;;7366459;19;109595;-62
2023/09/19 02:33:03;;;;;;;;;;;16.30;99.90;;;;;;7368259;19;108671;-62
2023/09/19 02:35:35;;;;;;;;;;;16.40;99.90;;;;;;7374090;19;112297;-62
2023/09/19 02:38:06;;;;;;;;;;;16.40;99.90;;;;;;7368718;19;109000;-62
2023/09/19 02:40:36;;;;;;;;;;;16.40;99.90;;;;;;7368927;19;111305;-62
2023/09/19 02:43:04;;;;;;;;;;;16.30;99.90;;;;;;7365415;19;109634;-63
2023/09/19 02:45:32;;;;;;;;;;;16.30;99.90;;;;;;7368690;19;109510;-62
2023/09/19 02:48:02;;;;;;;;;;;16.30;99.90;;;;;;7368772;19;110093;-62
2023/09/19 02:50:29;;;;;;;;;;;16.40;99.90;;;;;;7364975;19;109839;-62
2023/09/19 02:52:56;;;;;;;;;;;16.40;99.90;;;;;;7368429;19;108735;-62
2023/09/19 02:55:24;;;;;;;;;;;16.40;99.90;;;;;;7364822;19;110182;-62
2023/09/19 02:57:53;;;;;;;;;;;16.40;99.90;;;;;;7374162;19;108543;-62
2023/09/19 03:00:21;;;;;;;;;;;16.40;99.90;;;;;;7363198;19;109687;-62
2023/09/19 03:02:55;;;;;;;;;;;16.30;99.90;;;;;;7355644;19;110392;-62
2023/09/19 03:05:24;;;;;;;;;;;16.30;99.90;;;;;;7339252;19;109664;-62
2023/09/19 03:07:55;;;;;;;;;;;16.30;99.90;;;;;;7340288;19;110535;-63
2023/09/19 03:10:22;;;;;;;;;;;16.30;99.90;;;;;;7337588;19;110418;-62
2023/09/19 03:12:50;;;;;;;;;;;16.40;99.90;;;;;;7339038;19;108665;-62
2023/09/19 03:15:18;;;;;;;;;;;16.30;99.90;;;;;;7336238;19;110546;-62
2023/09/19 03:17:47;;;;;;;;;;;16.30;99.90;;;;;;7336410;19;108391;-62
2023/09/19 03:20:17;;;;;;;;;;;16.30;99.90;;;;;;7337603;19;109885;-63
2023/09/19 03:22:44;;;;;;;;;;;16.30;99.90;;;;;;7339490;19;109786;-62
2023/09/19 03:25:12;;;;;;;;;;;16.40;99.90;;;;;;7336799;19;109105;-64
2023/09/19 03:27:40;;;;;;;;;;;16.40;99.90;;;;;;7337249;19;109148;-63
2023/09/19 03:30:13;;;;;;;;;;;16.30;99.90;;;;;;7337827;19;108762;-71
2023/09/19 03:32:44;;;;;;;;;;;16.30;99.90;;;;;;7336690;19;109714;-67
2023/09/19 03:35:13;;;;;;;;;;;16.30;99.90;;;;;;7337598;19;109540;-73
2023/09/19 03:37:44;;;;;;;;;;;16.30;99.90;;;;;;7338152;19;109162;-73
2023/09/19 03:40:12;;;;;;;;;;;16.40;99.90;;;;;;7336467;19;110042;-63
2023/09/19 03:42:40;;;;;;;;;;;16.40;99.90;;;;;;7341550;19;109592;-62
2023/09/19 03:45:11;;;;;;;;;;;16.40;99.90;;;;;;7336558;19;108646;-62
2023/09/19 03:47:40;;;;;;;;;;;16.40;99.90;;;;;;7368888;19;110207;-86
2023/09/19 03:50:10;;;;;;;;;;;16.40;99.90;;;;;;7371251;19;109968;-85
2023/09/19 03:52:38;;;;;;;;;;;16.50;99.90;;;;;;7367391;19;108316;-85
2023/09/19 03:55:09;;;;;;;;;;;16.50;99.90;;;;;;7339513;19;110208;-85
2023/09/19 03:57:37;;;;;;;;;;;16.50;99.90;;;;;;7336261;19;109839;-86
2023/09/19 04:00:11;;;;;;;;;;;16.50;99.90;;;;;;7336488;19;111228;-86
2023/09/19 04:02:39;;;;;;;;;;;16.50;99.90;;;;;;7335385;19;113276;-86
2023/09/19 04:05:07;;;;;;;;;;;16.50;99.90;;;;;;7338945;19;109374;-85
2023/09/19 04:07:34;;;;;;;;;;;16.50;99.90;;;;;;7333778;19;110479;-85
2023/09/19 04:21:05;;;;;;;;;;;16.50;99.90;;;;;;7333626;19;109568;-62
2023/09/19 04:23:35;;;;;;;;;;;16.50;99.90;;;;;;7337039;19;109093;-63
2023/09/19 04:26:04;;;;;;;;;;;16.50;99.90;;;;;;7341195;19;108794;-62
2023/09/19 04:28:32;;;;;;;;;;;16.50;99.90;;;;;;7332572;19;109432;-62
2023/09/19 04:31:00;;;;;;;;;;;16.60;99.90;;;;;;7335640;19;109232;-61
2023/09/19 04:33:27;;;;;;;;;;;16.60;99.90;;;;;;7334635;19;109011;-62
2023/09/19 04:35:55;;;;;;;;;;;16.50;99.90;;;;;;7335230;19;109453;-62
2023/09/19 04:38:29;;;;;;;;;;;16.50;99.90;;;;;;7336025;19;109589;-62
2023/09/19 04:40:59;;;;;;;;;;;16.40;99.90;;;;;;7335480;19;110644;-61
2023/09/19 04:43:26;;;;;;;;;;;16.40;99.90;;;;;;7334215;19;110267;-65
2023/09/19 04:45:55;;;;;;;;;;;16.40;99.90;;;;;;7335504;19;108578;-61
2023/09/19 04:48:25;;;;;;;;;;;16.40;99.90;;;;;;7337718;19;108649;-61
2023/09/19 04:50:53;;;;;;;;;;;16.40;99.90;;;;;;7332169;19;108993;-62
2023/09/19 04:53:21;;;;;;;;;;;16.40;99.90;;;;;;7336606;19;110875;-61
2023/09/19 04:55:52;;;;;;;;;;;16.40;99.90;;;;;;7334800;19;109801;-61
2023/09/19 04:58:20;;;;;;;;;;;16.40;99.90;;;;;;7333805;19;110228;-62
2023/09/19 05:00:47;;;;;;;;;;;16.40;99.90;;;;;;7335210;19;108789;-61
2023/09/19 05:03:14;;;;;;;;;;;16.40;99.90;;;;;;7330941;19;110057;-62
2023/09/19 05:05:42;;;;;;;;;;;16.40;99.90;;;;;;7332670;19;108513;-61
2023/09/19 05:08:10;;;;;;;;;;;16.40;99.90;;;;;;7331746;19;109870;-61
2023/09/19 05:10:37;;;;;;;;;;;16.30;99.90;;;;;;7339627;19;110179;-63
2023/09/19 05:13:05;;;;;;;;;;;16.30;99.90;;;;;;7333941;19;108899;-61
2023/09/19 05:15:32;;;;;;;;;;;16.30;99.90;;;;;;7332738;19;109935;-62
2023/09/19 05:18:00;;;;;;;;;;;16.30;99.90;;;;;;7334348;19;110179;-61
2023/09/19 05:20:32;;;;;;;;;;;16.20;99.90;;;;;;7330770;19;109932;-61
2023/09/19 05:23:05;;;;;;;;;;;16.30;99.90;;;;;;7334943;19;110355;-61
2023/09/19 05:25:32;;;;;;;;;;;16.20;99.90;;;;;;7335425;19;109595;-61
2023/09/19 05:28:03;;;;;;;;;;;16.20;99.90;;;;;;7332156;19;108853;-61
2023/09/19 05:30:31;;;;;;;;;;;16.20;99.90;;;;;;7330856;19;110359;-61
2023/09/19 05:32:59;;;;;;;;;;;16.20;99.90;;;;;;7339332;19;109577;-61
2023/09/19 05:35:26;;;;;;;;;;;16.20;99.90;;;;;;7331852;19;109681;-61
2023/09/19 05:37:55;;;;;;;;;;;16.20;99.90;;;;;;7337131;19;108255;-62
2023/09/19 05:40:23;;;;;;;;;;;16.20;99.90;;;;;;7333235;19;109044;-62
2023/09/19 05:42:50;;;;;;;;;;;16.20;99.90;;;;;;7334635;19;109623;-61
2023/09/19 05:45:24;;;;;;;;;;;16.20;99.90;;;;;;7335826;19;108922;-61
2023/09/19 05:48:01;;;;;;;;;;;16.20;99.90;;;;;;7332815;19;109164;-61
2023/09/19 05:50:28;;;;;;;;;;;16.20;99.90;;;;;;7331717;19;109904;-61
2023/09/19 05:52:58;;;;;;;;;;;16.20;99.90;;;;;;7332894;19;112398;-61
2023/09/19 05:55:25;;;;;;;;;;;16.20;99.90;;;;;;7338154;19;110167;-62
2023/09/19 05:57:53;;;;;;;;;;;16.20;99.90;;;;;;7330502;19;109745;-60
2023/09/19 06:00:24;;;;;;;;;;;16.20;99.90;;;;;;7336109;19;109800;-60
2023/09/19 06:02:52;;;;;;;;;;;16.20;99.90;;;;;;7330814;19;109389;-60
2023/09/19 06:05:20;;;;;;;;;;;16.20;99.90;;;;;;7331597;19;108593;-60
2023/09/19 06:07:47;;;;;;;;;;;16.30;99.90;;;;;;7333743;19;108418;-60
2023/09/19 06:10:14;;;;;;;;;;;16.30;99.90;;;;;;7332443;19;111423;-60
2023/09/19 06:12:44;;;;;;;;;;;16.30;99.90;;;;;;7329093;19;108904;-59
2023/09/19 06:15:15;;;;;;;;;;;16.30;99.90;;;;;;7336187;19;109277;-59
2023/09/19 06:17:43;;;;;;;;;;;16.30;99.90;;;;;;7333418;19;108819;-60
2023/09/19 06:20:13;;;;;;;;;;;16.40;99.90;;;;;;7329768;19;108864;-60
2023/09/19 06:22:42;;;;;;;;;;;16.40;99.90;;;;;;7331190;19;109304;-60
2023/09/19 06:25:15;;;;;;;;;;;16.40;99.90;;;;;;7331907;19;110094;-60
2023/09/19 06:27:44;;;;;;;;;;;16.40;99.90;;;;;;7331894;19;108692;-60
2023/09/19 06:30:12;;;;;;;;;;;16.50;99.90;;;;;;7331651;19;109240;-60
2023/09/19 06:32:39;;;;;;;;;;;16.50;99.90;;;;;;7330463;19;109457;-60
2023/09/19 06:35:08;;;;;;;;;;;16.60;99.90;;;;;;7334126;19;108855;-60
2023/09/19 06:37:38;;;;;;;;;;;16.60;99.90;;;;;;7334071;19;109128;-59
2023/09/19 06:40:06;;;;;;;;;;;16.70;99.90;;;;;;7340271;19;109342;-59
2023/09/19 06:42:33;;;;;;;;;;;16.70;99.90;;;;;;7336877;19;109273;-59
2023/09/19 06:45:00;;;;;;;;;;;16.70;99.90;;;;;;7340327;19;108878;-59
2023/09/19 06:47:28;;;;;;;;;;;16.80;99.90;;;;;;7336826;19;108884;-59
2023/09/19 06:49:55;;;;;;;;;;;16.80;99.90;;;;;;7337812;19;109911;-60
2023/09/19 06:52:22;;;;;;;;;;;16.80;99.90;;;;;;7337353;19;110549;-64
2023/09/19 06:54:50;;;;;;;;;;;16.80;99.90;;;;;;7338570;19;108836;-59
2023/09/19 06:57:17;;;;;;;;;;;16.80;99.90;;;;;;7338048;19;110705;-60
2023/09/19 06:59:45;;;;;;;;;;;16.90;99.90;;;;;;7341291;19;109019;-60
2023/09/19 07:02:13;;;;;;;;;;;17.00;99.90;;;;;;7338244;19;110218;-60
2023/09/19 07:04:41;;;;;;;;;;;17.00;99.90;;;;;;7334565;19;113921;-60
2023/09/19 07:07:08;;;;;;;;;;;17.10;99.90;;;;;;7333321;19;110559;-60
2023/09/19 07:09:36;;;;;;;;;;;17.10;99.90;;;;;;7338771;19;109610;-60
2023/09/19 07:12:04;;;;;;;;;;;17.20;99.90;;;;;;7340198;19;108564;-60
2023/09/19 07:14:32;;;;;;;;;;;17.20;99.90;;;;;;7337326;19;111386;-60
2023/09/19 07:17:03;;;;;;;;;;;17.30;99.90;;;;;;7336168;19;110797;-60
2023/09/19 07:19:31;;;;;;;;;;;17.30;99.90;;;;;;7336495;19;108929;-60
2023/09/19 07:21:59;;;;;;;;;;;17.40;99.90;;;;;;7342571;19;109219;-62
2023/09/19 07:24:28;;;;;;;;;;;17.40;99.90;;;;;;7338684;19;108823;-60
2023/09/19 07:26:55;;;;;;;;;;;17.50;99.90;;;;;;7339363;19;108675;-60
2023/09/19 07:29:22;;;;;;;;;;;17.50;99.90;;;;;;7334523;19;110019;-60
2023/09/19 07:31:50;;;;;;;;;;;17.50;99.90;;;;;;7339001;19;108311;-60
2023/09/19 07:34:18;;;;;;;;;;;17.60;99.90;;;;;;7335116;19;110682;-60
2023/09/19 07:36:47;;;;;;;;;;;17.60;99.90;;;;;;7337330;19;109268;-60
2023/09/19 07:39:14;;;;;;;;;;;17.60;99.90;;;;;;7336453;19;108946;-60
2023/09/19 07:41:49;;;;;;;;;;;17.70;99.90;;;;;;7334744;19;108779;-60
2023/09/19 07:44:17;;;;;;;;;;;17.70;99.90;;;;;;7341497;19;109267;-60
2023/09/19 07:46:44;;;;;;;;;;;17.80;99.90;;;;;;7337097;19;108633;-59
2023/09/19 07:49:11;;;;;;;;;;;17.80;99.90;;;;;;7335534;19;109179;-63
2023/09/19 07:51:40;;;;;;;;;;;17.80;99.90;;;;;;7337012;19;108580;-60
2023/09/19 07:54:08;;;;;;;;;;;17.90;99.90;;;;;;7339029;19;108980;-60
2023/09/19 07:56:35;;;;;;;;;;;17.90;99.90;;;;;;7334483;19;109880;-60
2023/09/19 07:59:02;;;;;;;;;;;18.00;99.90;;;;;;7337032;19;108891;-60
2023/09/19 08:01:30;;;;;;;;;;;18.00;99.90;;;;;;7335099;19;108628;-60
2023/09/19 08:03:57;;;;;;;;;;;18.10;99.90;;;;;;7336364;19;110647;-60
2023/09/19 08:06:29;;;;;;;;;;;18.20;99.90;;;;;;7338416;19;109817;-68
2023/09/19 08:08:56;;;;;;;;;;;18.10;99.90;;;;;;7335574;19;110870;-67
2023/09/19 08:11:24;;;;;;;;;;;18.20;99.90;;;;;;7337464;19;110044;-67
2023/09/19 08:13:52;;;;;;;;;;;18.20;99.90;;;;;;7337729;19;108366;-67
2023/09/19 08:16:22;;;;;;;;;;;18.30;99.90;;;;;;7338203;19;108959;-67
2023/09/19 08:18:55;;;;;;;;;;;18.30;99.90;;;;;;7334946;19;108930;-67
2023/09/19 08:21:23;;;;;;;;;;;18.30;99.90;;;;;;7335977;19;108805;-67
2023/09/19 08:23:51;;;;;;;;;;;18.40;99.90;;;;;;7336979;19;109102;-67
2023/09/19 08:26:19;;;;;;;;;;;18.50;99.90;;;;;;7343607;19;109160;-67
2023/09/19 08:28:47;;;;;;;;;;;18.50;99.90;;;;;;7335630;19;112202;-67
2023/09/19 08:31:17;;;;;;;;;;;18.50;99.90;;;;;;7338079;19;109653;-66
2023/09/19 08:33:48;;;;;;;;;;;18.60;99.90;;;;;;7333911;19;109413;-67
2023/09/19 08:36:15;;;;;;;;;;;18.60;99.90;;;;;;7335552;19;114591;-67
2023/09/19 08:38:43;;;;;;;;;;;18.70;99.90;;;;;;7334451;19;108772;-66
2023/09/19 08:41:12;;;;;;;;;;;18.70;99.90;;;;;;7337490;19;109031;-67
2023/09/19 08:43:39;;;;;;;;;;;18.80;99.90;;;;;;7334252;19;109877;-66
2023/09/19 08:46:07;;;;;;;;;;;18.80;99.90;;;;;;7335576;19;109056;-66
2023/09/19 08:48:38;;;;;;;;;;;18.90;99.90;;;;;;7340222;19;109873;-67
2023/09/19 08:51:26;;;;;;;;;;;18.90;99.90;;;;;;7334635;19;109387;-67
2023/09/19 08:54:05;;;;;;;;;;;19.00;99.90;;;;;;7334880;19;109047;-66
2023/09/19 08:56:33;;;;;;;;;;;19.10;99.90;;;;;;7335090;19;109586;-67
2023/09/19 08:59:02;;;;;;;;;;;19.10;99.90;;;;;;7333225;19;109590;-67
2023/09/19 09:01:32;;;;;;;;;;;19.20;99.90;;;;;;7331417;19;108916;-67
2023/09/19 09:04:01;;;;;;;;;;;19.20;99.90;;;;;;7336437;19;109134;-69
2023/09/19 09:06:29;;;;;;;;;;;19.20;99.90;;;;;;7332740;19;111178;-66
2023/09/19 09:08:56;;;;;;;;;;;19.20;99.90;;;;;;7336233;19;109733;-63
2023/09/19 09:11:24;;;;;;;;;;;19.30;99.90;;;;;;7336902;19;110244;-62
2023/09/19 09:13:52;;;;;;;;;;;19.40;99.90;;;;;;7334978;19;108941;-63
2023/09/19 09:16:20;;;;;;;;;;;19.50;99.90;;;;;;7331831;19;109488;-63
2023/09/19 09:18:54;;;;;;;;;;;19.50;99.90;;;;;;7332850;19;110698;-63
2023/09/19 09:21:24;;;;;;;;;;;19.50;99.90;;;;;;7335377;19;108706;-63
2023/09/19 09:23:53;;;;;;;;;;;19.50;99.90;;;;;;7333129;19;109211;-63
2023/09/19 09:26:40;;;;;;;;;;;19.50;99.90;;;;;;7335818;19;111011;-62
2023/09/19 09:29:08;;;;;;;;;;;19.60;99.90;;;;;;7333558;19;108907;-63
2023/09/19 09:31:35;;;;;;;;;;;19.60;99.90;;;;;;7335926;19;110118;-63
2023/09/19 09:34:02;;;;;;;;;;;19.60;99.90;;;;;;7338732;19;109332;-63
2023/09/19 09:36:37;;;;;;;;;;;19.60;99.90;;;;;;7333948;19;109460;-63
2023/09/19 09:39:24;;;;;;;;;;;19.60;99.90;;;;;;7333893;19;108330;-63
2023/09/19 09:41:52;;;;;;;;;;;19.60;99.90;;;;;;7333929;19;109097;-63
2023/09/19 09:44:19;;;;;;;;;;;19.70;99.90;;;;;;7334379;19;110806;-64
2023/09/19 09:49:38;;;;;;;;;;;19.80;99.90;;;;;;7333588;19;108621;-63
2023/09/19 09:52:07;;;;;;;;;;;19.80;99.90;;;;;;7336707;19;110194;-64
2023/09/19 09:54:41;;;;;;;;;;;19.90;99.90;;;;;;7335078;19;109243;-64
2023/09/19 09:57:23;;;;;;;;;;;20.00;99.90;;;;;;7337844;19;108740;-64
2023/09/19 09:59:53;;;;;;;;;;;20.00;99.90;;;;;;7333642;19;108902;-91
2023/09/19 10:02:29;;;;;;;;;;;20.00;99.90;;;;;;7333313;19;110771;-91
2023/09/19 10:07:40;;;;;;;;;;;20.10;99.90;;;;;;7333065;19;108605;-64
2023/09/19 10:10:16;;;;;;;;;;;20.10;99.90;;;;;;7334931;19;108727;-64
2023/09/19 10:12:48;;;;;;;;;;;20.20;99.90;;;;;;7332630;19;109076;-68
2023/09/19 10:15:16;;;;;;;;;;;20.20;99.90;;;;;;7338639;19;108616;-63
2023/09/19 10:17:45;;;;;;;;;;;20.30;99.90;;;;;;7338451;19;109127;-63
2023/09/19 10:20:37;;;;;;;;;;;20.40;99.90;;;;;;7344758;19;109153;-63
2023/09/19 10:23:12;;;;;;;;;;;20.50;99.90;;;;;;7342752;19;109107;-88
2023/09/19 10:25:45;;;;;;;;;;;20.50;99.90;;;;;;7350259;19;110103;-88
2023/09/19 10:28:14;;;;;;;;;;;20.60;99.90;;;;;;7358612;19;108642;-88
2023/09/19 10:30:44;;;;;;;;;;;20.60;99.90;;;;;;7361597;19;109335;-89
2023/09/19 10:35:59;;;;;;;;;;;20.70;99.90;;;;;;7333753;19;108458;-63
2023/09/19 10:38:28;;;;;;;;;;;20.80;99.90;;;;;;7340296;19;108658;-63
2023/09/19 10:41:00;;;;;;;;;;;20.90;99.90;;;;;;7346649;19;109059;-62
2023/09/19 10:43:32;;;;;;;;;;;21.00;99.90;;;;;;7339600;19;108404;-63
2023/09/19 10:46:12;;;;;;;;;;;21.00;99.90;;;;;;7339497;19;109119;-63
2023/09/19 10:48:40;;;;;;;;;;;21.00;99.90;;;;;;7337882;19;108749;-63
2023/09/19 10:51:13;;;;;;;;;;;21.10;99.90;;;;;;7339409;19;109708;-63
2023/09/19 10:53:46;;;;;;;;;;;21.20;99.90;;;;;;7338932;19;109223;-63
2023/09/19 10:56:27;;;;;;;;;;;21.30;99.90;;;;;;7339232;19;108782;-62
2023/09/19 10:59:10;;;;;;;;;;;21.30;99.90;;;;;;7336349;19;108395;-64
2023/09/19 11:01:47;;;;;;;;;;;21.30;99.90;;;;;;7336702;19;109918;-63
2023/09/19 11:04:21;;;;;;;;;;;21.50;99.90;;;;;;7344493;19;108356;-63
2023/09/19 11:07:18;;;;;;;;;;;21.50;99.90;;;;;;7340571;19;109231;-65
2023/09/19 11:10:01;;;;;;;;;;;21.60;99.90;;;;;;7337232;19;109265;-63
2023/09/19 11:12:40;;;;;;;;;;;21.70;99.90;;;;;;7336670;19;110905;-64
2023/09/19 11:15:10;;;;;;;;;;;21.70;99.90;;;;;;7339871;19;109623;-63
2023/09/19 11:17:40;;;;;;;;;;;21.80;99.90;;;;;;7338576;19;108817;-63
2023/09/19 11:22:52;;;;;;;;;;;22.00;99.90;;;;;;7338291;19;110753;-65
2023/09/19 11:25:38;;;;;;;;;;;22.00;99.90;;;;;;7337699;19;108496;-63
2023/09/19 11:28:08;;;;;;;;;;;22.00;99.90;;;;;;7347190;19;109110;-63
2023/09/19 11:30:37;;;;;;;;;;;22.00;99.90;;;;;;7338631;19;108826;-67
2023/09/19 11:33:28;;;;;;;;;;;22.00;99.90;;;;;;7339571;19;109024;-66
2023/09/19 11:36:03;;;;;;;;;;;22.00;99.90;;;;;;7337696;19;111887;-64
2023/09/19 11:38:43;;;;;;;;;;;22.00;99.90;;;;;;7338997;19;109170;-63
2023/09/19 11:41:20;;;;;;;;;;;22.10;99.90;;;;;;7338471;19;108714;-63
2023/09/19 11:43:47;;;;;;;;;;;22.10;99.90;;;;;;7337867;19;110638;-63
2023/09/19 11:46:21;;;;;;;;;;;22.20;99.90;;;;;;7336819;19;108596;-63
2023/09/19 11:48:49;;;;;;;;;;;22.30;99.90;;;;;;7337887;19;109664;-63
2023/09/19 11:51:23;;;;;;;;;;;22.50;99.90;;;;;;7341684;19;109821;-64
2023/09/19 11:53:51;;;;;;;;;;;22.70;99.90;;;;;;7339500;19;112783;-64
2023/09/19 11:56:20;;;;;;;;;;;22.80;99.90;;;;;;7335440;19;109102;-63
2023/09/19 11:58:54;;;;;;;;;;;22.90;99.90;;;;;;7338192;19;110844;-63
2023/09/19 12:01:22;;;;;;;;;;;22.90;99.90;;;;;;7335614;19;109450;-63
2023/09/19 12:03:52;;;;;;;;;;;22.90;99.90;;;;;;7340246;19;108931;-64
2023/09/19 12:06:21;;;;;;;;;;;22.90;99.90;;;;;;7335216;19;109850;-65
2023/09/19 12:08:49;;;;;;;;;;;22.70;99.90;;;;;;7338460;19;108681;-63
2023/09/19 12:11:17;;;;;;;;;;;22.70;99.90;;;;;;7336437;19;110729;-63
2023/09/19 12:13:45;;;;;;;;;;;22.70;99.90;;;;;;7340860;19;108586;-63
2023/09/19 12:16:16;;;;;;;;;;;22.60;99.90;;;;;;7337168;19;109824;-63
2023/09/19 12:18:44;;;;;;;;;;;22.60;99.90;;;;;;7334741;19;111916;-63
2023/09/19 12:21:41;;;;;;;;;;;22.60;99.90;;;;;;7339100;19;108880;-63
2023/09/19 12:24:13;;;;;;;;;;;22.50;99.90;;;;;;7334857;19;111242;-67
2023/09/19 12:26:41;;;;;;;;;;;22.50;99.90;;;;;;7334994;19;110949;-63
2023/09/19 12:29:36;;;;;;;;;;;22.50;99.90;;;;;;7333908;19;109126;-62
2023/09/19 12:32:04;;;;;;;;;;;22.50;99.90;;;;;;7335546;19;110213;-63
2023/09/19 12:34:54;;;;;;;;;;;22.60;99.90;;;;;;7334184;19;110624;-63
2023/09/19 12:37:22;;;;;;;;;;;22.70;99.90;;;;;;7336405;19;109142;-63
2023/09/19 12:39:51;;;;;;;;;;;22.60;99.90;;;;;;7336896;19;108762;-63
2023/09/19 12:42:19;;;;;;;;;;;22.70;99.90;;;;;;7334646;19;110311;-63
2023/09/19 12:44:48;;;;;;;;;;;22.80;99.90;;;;;;7338584;19;109880;-63
2023/09/19 12:47:17;;;;;;;;;;;22.90;99.90;;;;;;7336191;19;109260;-63
2023/09/19 12:50:05;;;;;;;;;;;22.80;99.90;;;;;;7333900;19;109439;-63
2023/09/19 12:52:36;;;;;;;;;;;22.80;99.90;;;;;;7335492;19;109347;-64
2023/09/19 12:55:06;;;;;;;;;;;22.80;99.90;;;;;;7330655;19;110302;-63
2023/09/19 12:57:34;;;;;;;;;;;22.70;99.90;;;;;;7341154;19;108563;-63
2023/09/19 13:00:02;;;;;;;;;;;22.60;99.90;;;;;;7333804;19;108905;-63
2023/09/19 13:02:30;;;;;;;;;;;22.60;99.90;;;;;;7336084;19;109079;-63
2023/09/19 13:04:59;;;;;;;;;;;22.50;99.90;;;;;;7335210;19;109133;-63
2023/09/19 13:07:43;;;;;;;;;;;22.50;99.90;;;;;;7335592;19;108898;-63
2023/09/19 13:10:10;;;;;;;;;;;22.40;99.90;;;;;;7335995;19;109407;-63
2023/09/19 13:12:38;;;;;;;;;;;22.30;99.90;;;;;;7332861;19;109677;-63
2023/09/19 13:15:16;;;;;;;;;;;22.20;99.90;;;;;;7336989;19;109766;-63
2023/09/19 13:17:43;;;;;;;;;;;22.20;99.90;;;;;;7333917;19;109193;-63
2023/09/19 13:20:32;;;;;;;;;;;22.20;99.90;;;;;;7340177;19;112105;-63
2023/09/19 13:23:10;;;;;;;;;;;22.20;99.90;;;;;;7338043;19;109941;-63
2023/09/19 13:25:39;;;;;;;;;;;22.10;99.90;;;;;;7333147;19;109277;-63
2023/09/19 13:28:07;;;;;;;;;;;22.00;99.90;;;;;;7334599;19;111163;-62
2023/09/19 13:30:37;;;;;;;;;;;22.00;99.90;;;;;;7334783;19;108863;-64
2023/09/19 13:33:11;;;;;;;;;;;22.00;99.90;;;;;;7336520;19;110189;-63
2023/09/19 13:35:40;;;;;;;;;;;21.90;99.90;;;;;;7333701;19;110475;-63
2023/09/19 13:38:11;;;;;;;;;;;21.80;99.90;;;;;;7336581;19;108862;-63
2023/09/19 13:40:44;;;;;;;;;;;21.80;99.90;;;;;;7333497;19;110232;-63
2023/09/19 13:43:11;;;;;;;;;;;21.70;99.90;;;;;;7338391;19;111129;-63
2023/09/19 13:45:41;;;;;;;;;;;21.70;99.90;;;;;;7333502;19;110068;-63
2023/09/19 13:48:08;;;;;;;;;;;21.70;99.90;;;;;;7334071;19;112065;-62
2023/09/19 13:50:36;;;;;;;;;;;21.70;99.90;;;;;;7335484;19;114289;-62
2023/09/19 13:53:03;;;;;;;;;;;21.70;99.90;;;;;;7329069;19;109669;-63
2023/09/19 13:55:30;;;;;;;;;;;21.70;99.90;;;;;;7336151;19;109080;-63
2023/09/19 13:57:58;;;;;;;;;;;21.70;99.90;;;;;;7333662;19;109576;-63
2023/09/19 14:00:25;;;;;;;;;;;21.80;99.90;;;;;;7334383;19;109680;-63
2023/09/19 14:02:52;;;;;;;;;;;21.70;99.90;;;;;;7330896;19;108787;-63
2023/09/19 14:05:20;;;;;;;;;;;21.70;99.90;;;;;;7339182;19;108839;-63
2023/09/19 14:07:48;;;;;;;;;;;21.70;99.90;;;;;;7332373;19;109843;-62
2023/09/19 14:10:15;;;;;;;;;;;21.70;99.90;;;;;;7332553;19;110351;-63
2023/09/19 14:12:44;;;;;;;;;;;21.80;99.90;;;;;;7328838;19;109680;-63
2023/09/19 14:15:12;;;;;;;;;;;21.80;99.90;;;;;;7332485;19;108918;-63
2023/09/19 14:17:42;;;;;;;;;;;22.00;99.90;;;;;;7332192;19;108645;-63
2023/09/19 14:20:10;;;;;;;;;;;22.00;99.90;;;;;;7331321;19;109396;-63
2023/09/19 14:22:37;;;;;;;;;;;22.20;99.90;;;;;;7334443;19;109167;-62
2023/09/19 14:25:05;;;;;;;;;;;22.20;99.90;;;;;;7333202;19;108498;-63
2023/09/19 14:27:32;;;;;;;;;;;22.20;99.90;;;;;;7339969;19;110469;-63
2023/09/19 14:29:59;;;;;;;;;;;22.20;99.90;;;;;;7335809;19;109352;-63
2023/09/19 14:32:27;;;;;;;;;;;22.20;99.90;;;;;;7333656;19;109289;-62
2023/09/19 14:34:54;;;;;;;;;;;22.30;99.90;;;;;;7333082;19;108669;-63
2023/09/19 14:37:21;;;;;;;;;;;22.40;99.90;;;;;;7328958;19;108444;-63
2023/09/19 14:39:48;;;;;;;;;;;22.50;99.90;;;;;;7336747;19;111001;-62
2023/09/19 14:42:17;;;;;;;;;;;22.50;99.90;;;;;;7334298;19;108869;-62
2023/09/19 14:44:47;;;;;;;;;;;22.70;99.90;;;;;;7334322;19;108627;-63
2023/09/19 14:47:15;;;;;;;;;;;22.80;99.90;;;;;;7333306;19;109765;-63
2023/09/19 14:49:42;;;;;;;;;;;22.90;99.90;;;;;;7338159;19;109155;-63